createdAt,value
2019-05-13T00:00:53.903Z,3.67
2019-05-13T00:03:23.925Z,3.53
2019-05-13T00:05:53.609Z,6.07
2019-05-13T00:08:24.822Z,4.73
2019-05-13T00:10:54.183Z,5.03
2019-05-13T00:13:23.734Z,2.90
2019-05-13T00:15:54.360Z,3.83
2019-05-13T00:18:23.821Z,4.23
2019-05-13T00:20:54.225Z,4.43
2019-05-13T00:23:23.401Z,4.43
2019-05-13T00:25:54.389Z,3.77
2019-05-13T00:28:23.455Z,3.57
2019-05-13T00:30:54.242Z,5.73
2019-05-13T00:33:24.343Z,4.10
2019-05-13T00:35:53.523Z,3.63
2019-05-13T00:38:24.375Z,5.10
2019-05-13T00:40:54.529Z,3.70
2019-05-13T00:43:24.465Z,5.07
2019-05-13T00:45:53.796Z,4.77
2019-05-13T00:48:23.678Z,3.70
2019-05-13T00:50:54.448Z,4.93
2019-05-13T00:53:23.737Z,3.47
2019-05-13T00:55:53.612Z,4.10
2019-05-13T00:58:24.154Z,4.37
2019-05-13T01:00:54.586Z,5.83
2019-05-13T01:03:26.366Z,4.73
2019-05-13T01:05:54.250Z,4.23
2019-05-13T01:08:23.778Z,3.57
2019-05-13T01:10:53.623Z,4.43
2019-05-13T01:13:23.793Z,6.03
2019-05-13T01:15:54.373Z,6.77
2019-05-13T01:18:23.401Z,3.53
2019-05-13T01:20:53.826Z,4.27
2019-05-13T01:23:24.082Z,5.43
2019-05-13T01:25:54.404Z,5.63
2019-05-13T01:28:23.983Z,7.07
2019-05-13T01:30:53.931Z,4.03
2019-05-13T01:33:23.516Z,5.97
2019-05-13T01:35:53.797Z,4.40
2019-05-13T01:38:24.087Z,4.27
2019-05-13T01:40:53.993Z,4.70
2019-05-13T01:43:24.563Z,3.87
2019-05-13T01:45:53.884Z,2.93
2019-05-13T01:48:24.028Z,4.77
2019-05-13T01:50:53.501Z,4.77
2019-05-13T01:53:24.154Z,3.37
2019-05-13T01:55:53.238Z,7.27
2019-05-13T01:58:23.621Z,4.17
2019-05-13T02:00:54.953Z,4.80
2019-05-13T02:03:24.574Z,3.80
2019-05-13T02:05:54.367Z,4.97
2019-05-13T02:08:24.530Z,3.87
2019-05-13T02:10:55.843Z,7.23
2019-05-13T02:13:25.245Z,4.00
2019-05-13T02:15:55.462Z,4.40
2019-05-13T02:18:24.842Z,4.87
2019-05-13T02:20:55.391Z,4.17
2019-05-13T02:23:25.464Z,4.73
2019-05-13T02:25:54.713Z,3.60
2019-05-13T02:28:24.758Z,4.73
2019-05-13T02:30:56.165Z,5.03
2019-05-13T02:33:25.247Z,5.23
2019-05-13T02:35:54.141Z,4.20
2019-05-13T02:38:29.494Z,5.63
2019-05-13T02:40:53.825Z,4.57
2019-05-13T02:43:24.245Z,4.33
2019-05-13T02:45:54.323Z,5.80
2019-05-13T02:48:24.059Z,5.50
2019-05-13T02:50:54.321Z,3.97
2019-05-13T02:53:24.084Z,6.50
2019-05-13T02:55:53.235Z,4.73
2019-05-13T02:58:24.280Z,4.13
2019-05-13T03:00:54.123Z,4.13
2019-05-13T03:03:23.405Z,3.80
2019-05-13T03:05:53.222Z,6.27
2019-05-13T03:08:35.229Z,4.13
2019-05-13T03:10:54.023Z,5.10
2019-05-13T03:13:23.579Z,4.70
2019-05-13T03:16:06.594Z,5.70
2019-05-13T03:18:35.280Z,4.97
2019-05-13T03:21:03.978Z,7.10
2019-05-13T03:23:32.973Z,4.40
2019-05-13T03:26:03.043Z,4.93
2019-05-13T03:28:33.492Z,5.27
2019-05-13T03:31:06.158Z,5.57
2019-05-13T03:33:36.761Z,4.80
2019-05-13T03:36:07.106Z,5.23
2019-05-13T03:38:57.230Z,4.40
2019-05-13T03:41:12.206Z,4.93
2019-05-13T03:43:43.215Z,4.60
2019-05-13T03:46:12.456Z,5.90
2019-05-13T03:48:42.829Z,5.07
2019-05-13T03:51:13.677Z,5.70
2019-05-13T03:53:43.415Z,6.40
2019-05-13T03:56:13.191Z,6.43
2019-05-13T03:58:43.619Z,5.33
2019-05-13T04:01:13.344Z,4.33
2019-05-13T04:03:43.861Z,5.37
2019-05-13T04:06:14.073Z,5.93
2019-05-13T04:08:44.054Z,5.87
2019-05-13T04:11:13.432Z,7.33
2019-05-13T04:13:43.179Z,5.40
2019-05-13T04:16:13.424Z,6.40
2019-05-13T04:18:42.901Z,6.37
2019-05-13T04:21:13.316Z,7.20
2019-05-13T04:23:42.822Z,6.10
2019-05-13T04:26:15.002Z,6.47
2019-05-13T04:28:43.997Z,6.03
2019-05-13T04:31:14.041Z,7.00
2019-05-13T04:33:43.065Z,5.47
2019-05-13T04:36:13.767Z,6.57
2019-05-13T04:38:44.692Z,5.83
2019-05-13T04:41:13.721Z,5.77
2019-05-13T04:43:44.011Z,7.50
2019-05-13T04:46:14.411Z,7.93
2019-05-13T04:48:44.370Z,5.27
2019-05-13T04:51:14.373Z,6.33
2019-05-13T04:53:42.886Z,6.23
2019-05-13T04:56:13.705Z,5.77
2019-05-13T04:58:43.037Z,5.80
2019-05-13T05:02:04.422Z,6.07
2019-05-13T05:05:05.859Z,6.60
2019-05-13T05:08:12.032Z,6.60
2019-05-13T05:11:24.013Z,5.80
2019-05-13T05:14:25.498Z,6.47
2019-05-13T05:17:42.784Z,6.60
2019-05-13T05:20:23.096Z,6.37
2019-05-13T05:23:42.279Z,7.17
2019-05-13T05:26:52.159Z,6.30
2019-05-13T05:29:32.113Z,6.40
2019-05-13T05:32:36.008Z,6.33
2019-05-13T05:35:46.505Z,7.40
2019-05-13T05:38:56.629Z,6.27
2019-05-13T05:41:28.557Z,7.67
2019-05-13T05:44:02.197Z,7.70
2019-05-13T05:46:32.371Z,6.10
2019-05-13T05:49:07.018Z,6.53
2019-05-13T05:51:38.247Z,6.37
2019-05-13T05:54:12.150Z,7.80
2019-05-13T05:56:41.480Z,6.47
2019-05-13T05:59:12.504Z,9.43
2019-05-13T06:01:52.546Z,8.20
2019-05-13T06:04:32.956Z,8.47
2019-05-13T06:07:11.582Z,6.40
2019-05-13T06:09:46.860Z,7.83
2019-05-13T06:12:23.861Z,8.03
2019-05-13T06:15:06.059Z,8.10
2019-05-13T06:17:47.896Z,8.33
2019-05-13T06:20:24.578Z,9.87
2019-05-13T06:23:02.937Z,6.20
2019-05-13T06:25:42.555Z,7.70
2019-05-13T06:28:23.904Z,8.40
2019-05-13T06:31:03.638Z,8.20
2019-05-13T06:33:42.207Z,7.90
2019-05-13T06:36:25.113Z,8.47
2019-05-13T06:39:06.410Z,8.07
2019-05-13T06:41:48.595Z,10.77
2019-05-13T06:44:25.343Z,7.80
2019-05-13T06:47:07.046Z,7.63
2019-05-13T06:49:42.991Z,10.23
2019-05-13T06:52:17.530Z,8.57
2019-05-13T06:54:54.166Z,9.30
2019-05-13T06:57:32.253Z,7.97
2019-05-13T07:00:08.282Z,8.80
2019-05-13T07:02:45.630Z,7.43
2019-05-13T07:05:25.017Z,8.47
2019-05-13T07:08:06.863Z,8.27
2019-05-13T07:10:44.385Z,8.40
2019-05-13T07:13:23.055Z,7.60
2019-05-13T07:16:03.530Z,7.27
2019-05-13T07:18:41.506Z,5.93
2019-05-13T07:21:21.570Z,7.70
2019-05-13T07:23:57.848Z,7.63
2019-05-13T07:26:37.347Z,7.23
2019-05-13T07:29:13.224Z,8.80
2019-05-13T07:31:52.254Z,7.93
2019-05-13T07:34:28.125Z,8.10
2019-05-13T07:37:11.217Z,6.80
2019-05-13T07:39:46.757Z,7.03
2019-05-13T07:42:25.623Z,7.23
2019-05-13T07:45:12.322Z,6.63
2019-05-13T07:47:52.096Z,9.90
2019-05-13T07:50:28.359Z,9.97
2019-05-13T07:53:05.493Z,7.83
2019-05-13T07:55:52.527Z,8.87
2019-05-13T07:58:28.651Z,7.00
2019-05-13T08:01:02.992Z,7.10
2019-05-13T08:03:44.901Z,6.43
2019-05-13T08:06:22.016Z,7.87
2019-05-13T08:09:14.731Z,6.97
2019-05-13T08:12:04.336Z,8.20
2019-05-13T08:14:43.334Z,6.53
2019-05-13T08:17:26.173Z,7.17
2019-05-13T08:20:03.566Z,6.77
2019-05-13T08:22:43.309Z,6.90
2019-05-13T08:25:18.685Z,6.20
2019-05-13T08:27:54.570Z,6.57
2019-05-13T08:30:33.547Z,5.97
2019-05-13T08:33:15.528Z,6.87
2019-05-13T08:35:53.870Z,6.73
2019-05-13T08:38:32.163Z,6.37
2019-05-13T08:41:18.831Z,5.77
2019-05-13T08:43:52.416Z,6.03
2019-05-13T08:46:32.306Z,5.10
2019-05-13T08:49:11.566Z,5.53
2019-05-13T08:51:45.875Z,8.07
2019-05-13T08:54:25.607Z,5.90
2019-05-13T08:57:05.907Z,5.10
2019-05-13T08:59:43.202Z,5.07
2019-05-13T09:02:18.492Z,4.47
2019-05-13T09:05:02.114Z,5.20
2019-05-13T09:07:34.932Z,5.93
2019-05-13T09:10:12.540Z,5.23
2019-05-13T09:12:43.473Z,4.83
2019-05-13T09:15:22.409Z,7.67
2019-05-13T09:18:08.704Z,5.17
2019-05-13T09:20:45.358Z,6.27
2019-05-13T09:23:22.281Z,5.20
2019-05-13T09:26:11.941Z,5.33
2019-05-13T09:28:46.202Z,4.20
2019-05-13T09:31:24.345Z,3.90
2019-05-13T09:33:53.791Z,4.73
2019-05-13T09:36:33.365Z,4.60
2019-05-13T09:39:09.068Z,4.27
2019-05-13T09:41:51.810Z,3.83
2019-05-13T09:44:32.690Z,4.07
2019-05-13T09:47:06.675Z,4.83
2019-05-13T09:49:47.818Z,4.10
2019-05-13T09:52:24.009Z,4.00
2019-05-13T09:54:57.735Z,4.40
2019-05-13T09:57:41.257Z,3.93
2019-05-13T10:00:23.281Z,3.70
2019-05-13T10:03:02.193Z,5.77
2019-05-13T10:05:36.409Z,3.73
2019-05-13T10:08:15.774Z,4.50
2019-05-13T10:10:55.200Z,6.57
2019-05-13T10:13:33.266Z,3.90
2019-05-13T10:16:06.228Z,3.97
2019-05-13T10:18:42.702Z,5.73
2019-05-13T10:21:22.892Z,4.47
2019-05-13T10:24:04.656Z,5.23
2019-05-13T10:26:42.862Z,4.23
2019-05-13T10:29:22.907Z,5.30
2019-05-13T10:32:03.162Z,4.67
2019-05-13T10:34:46.008Z,4.30
2019-05-13T10:37:26.746Z,3.93
2019-05-13T10:40:02.306Z,4.00
2019-05-13T10:42:39.956Z,4.67
2019-05-13T10:45:22.123Z,4.10
2019-05-13T10:47:58.085Z,5.87
2019-05-13T10:50:38.104Z,4.73
2019-05-13T10:53:13.693Z,4.43
2019-05-13T10:55:47.465Z,3.73
2019-05-13T10:58:25.397Z,4.73
2019-05-13T11:01:03.973Z,3.07
2019-05-13T11:03:46.004Z,2.70
2019-05-13T11:06:24.332Z,4.30
2019-05-13T11:09:01.562Z,4.73
2019-05-13T11:11:42.319Z,4.90
2019-05-13T11:14:23.447Z,3.70
2019-05-13T11:17:06.814Z,4.33
2019-05-13T11:19:48.029Z,3.87
2019-05-13T11:22:32.679Z,3.53
2019-05-13T11:25:12.233Z,3.77
2019-05-13T11:27:55.549Z,4.47
2019-05-13T11:30:28.700Z,3.43
2019-05-13T11:33:10.225Z,4.20
2019-05-13T11:35:48.527Z,2.97
2019-05-13T11:38:28.670Z,4.90
2019-05-13T11:41:11.868Z,4.20
2019-05-13T11:44:09.226Z,4.37
2019-05-13T11:46:29.384Z,4.73
2019-05-13T11:49:14.544Z,4.80
2019-05-13T11:51:52.139Z,3.70
2019-05-13T11:54:30.099Z,3.63
2019-05-13T11:57:12.510Z,4.30
2019-05-13T11:59:52.457Z,4.47
2019-05-13T12:02:25.584Z,5.23
2019-05-13T12:05:07.462Z,5.23
2019-05-13T12:07:46.369Z,5.03
2019-05-13T12:10:23.601Z,3.10
2019-05-13T12:13:02.649Z,3.73
2019-05-13T12:15:46.089Z,3.37
2019-05-13T12:18:14.051Z,5.30
2019-05-13T12:20:55.412Z,4.53
2019-05-13T12:23:31.137Z,4.23
2019-05-13T12:26:08.120Z,4.37
2019-05-13T12:28:37.032Z,4.20
2019-05-13T12:31:12.233Z,3.80
2019-05-13T12:33:52.205Z,4.20
2019-05-13T12:36:37.756Z,5.50
2019-05-13T12:39:14.407Z,4.60
2019-05-13T12:41:49.267Z,3.23
2019-05-13T12:44:33.479Z,4.07
2019-05-13T12:47:12.107Z,4.73
2019-05-13T12:49:48.916Z,5.87
2019-05-13T12:52:27.731Z,3.80
2019-05-13T12:55:04.764Z,3.90
2019-05-13T12:57:39.911Z,4.50
2019-05-13T13:00:13.947Z,6.93
2019-05-13T13:02:52.006Z,5.17
2019-05-13T13:05:37.325Z,4.17
2019-05-13T13:08:34.475Z,3.37
2019-05-13T13:10:59.497Z,4.50
2019-05-13T13:16:19.470Z,6.03
2019-05-13T13:18:55.409Z,4.97
2019-05-13T13:21:33.591Z,4.87
2019-05-13T13:24:12.265Z,5.47
2019-05-13T13:26:48.295Z,3.80
2019-05-13T13:29:26.433Z,4.30
2019-05-13T13:32:02.886Z,5.27
2019-05-13T13:34:38.653Z,4.10
2019-05-13T13:37:22.590Z,6.03
2019-05-13T13:40:02.643Z,5.60
2019-05-13T13:42:43.056Z,4.50
2019-05-13T13:45:23.352Z,4.43
2019-05-13T13:48:03.952Z,6.60
2019-05-13T13:50:43.333Z,4.67
2019-05-13T13:53:25.215Z,5.33
2019-05-13T13:56:02.264Z,5.37
2019-05-13T13:58:43.795Z,3.67
2019-05-13T14:01:26.924Z,4.87
2019-05-13T14:04:03.779Z,3.63
2019-05-13T14:06:50.057Z,5.40
2019-05-13T14:09:24.400Z,4.70
2019-05-13T14:12:02.256Z,3.03
2019-05-13T14:14:41.465Z,6.47
2019-05-13T14:17:16.875Z,4.67
2019-05-13T14:19:53.534Z,6.30
2019-05-13T14:22:27.491Z,3.50
2019-05-13T14:25:11.481Z,7.13
2019-05-13T14:27:43.525Z,3.40
2019-05-13T14:30:22.572Z,10.00
2019-05-13T14:33:02.167Z,6.47
2019-05-13T14:35:36.843Z,4.93
2019-05-13T14:38:17.313Z,5.63
2019-05-13T14:40:54.753Z,6.17
2019-05-13T14:43:31.775Z,3.63
2019-05-13T14:46:12.631Z,4.30
2019-05-13T14:48:52.392Z,4.37
2019-05-13T14:51:29.222Z,7.47
2019-05-13T14:54:05.424Z,3.80
2019-05-13T14:56:42.103Z,4.47
2019-05-13T14:59:18.321Z,5.63
2019-05-13T15:02:01.189Z,3.90
2019-05-13T15:04:36.005Z,3.40
2019-05-13T15:07:12.173Z,4.30
2019-05-13T15:09:45.616Z,4.10
2019-05-13T15:12:21.682Z,3.37
2019-05-13T15:14:58.020Z,5.33
2019-05-13T15:17:38.016Z,3.93
2019-05-13T15:20:21.612Z,3.70
2019-05-13T15:22:59.855Z,3.97
2019-05-13T15:25:41.773Z,4.03
2019-05-13T15:28:22.054Z,3.83
2019-05-13T15:30:55.667Z,4.33
2019-05-13T15:33:32.887Z,4.07
2019-05-13T15:36:16.925Z,4.53
2019-05-13T15:38:54.140Z,3.97
2019-05-13T15:41:33.557Z,4.90
2019-05-13T15:44:07.674Z,4.80
2019-05-13T15:46:36.500Z,4.00
2019-05-13T15:49:05.070Z,3.07
2019-05-13T15:51:42.020Z,4.97
2019-05-13T15:54:16.827Z,4.87
2019-05-13T15:56:57.660Z,5.13
2019-05-13T15:59:31.136Z,4.87
2019-05-13T16:02:11.395Z,4.33
2019-05-13T16:05:00.237Z,3.77
2019-05-13T16:07:28.129Z,3.57
2019-05-13T16:10:02.034Z,4.10
2019-05-13T16:12:38.870Z,5.83
2019-05-13T16:15:15.494Z,5.13
2019-05-13T16:17:57.162Z,5.20
2019-05-13T16:20:34.935Z,5.77
2019-05-13T16:23:12.128Z,5.80
2019-05-13T16:25:47.585Z,4.90
2019-05-13T16:28:27.155Z,5.30
2019-05-13T16:31:02.865Z,6.07
2019-05-13T16:33:37.790Z,4.33
2019-05-13T16:36:13.254Z,6.07
2019-05-13T16:38:52.049Z,4.23
2019-05-13T16:41:43.194Z,5.03
2019-05-13T16:44:22.470Z,3.40
2019-05-13T16:47:01.498Z,3.33
2019-05-13T16:49:42.115Z,4.30
2019-05-13T16:52:25.387Z,3.57
2019-05-13T16:55:02.739Z,5.30
2019-05-13T16:57:39.137Z,4.17
2019-05-13T17:00:15.925Z,4.33
2019-05-13T17:02:51.866Z,3.67
2019-05-13T17:05:24.069Z,4.40
2019-05-13T17:08:04.666Z,5.30
2019-05-13T17:10:42.655Z,3.57
2019-05-13T17:13:17.991Z,2.57
2019-05-13T17:15:52.270Z,4.47
2019-05-13T17:18:33.073Z,4.17
2019-05-13T17:21:11.392Z,4.53
2019-05-13T17:23:52.323Z,4.50
2019-05-13T17:26:32.718Z,4.17
2019-05-13T17:29:14.056Z,3.87
2019-05-13T17:31:51.533Z,4.23
2019-05-13T17:34:31.602Z,3.37
2019-05-13T17:37:07.613Z,3.70
2019-05-13T17:39:45.481Z,5.50
2019-05-13T17:42:18.251Z,5.10
2019-05-13T17:45:02.385Z,5.30
2019-05-13T17:47:37.896Z,6.33
2019-05-13T17:50:11.685Z,5.10
2019-05-13T17:52:52.697Z,6.17
2019-05-13T17:55:29.000Z,5.37
2019-05-13T17:58:07.056Z,7.13
2019-05-13T18:00:45.873Z,6.33
2019-05-13T18:03:21.072Z,4.03
2019-05-13T18:05:55.807Z,3.33
2019-05-13T18:08:32.049Z,6.87
2019-05-13T18:11:06.656Z,4.43
2019-05-13T18:13:48.239Z,6.13
2019-05-13T18:16:24.294Z,7.27
2019-05-13T18:18:58.797Z,5.70
2019-05-13T18:21:33.427Z,5.20
2019-05-13T18:24:14.859Z,5.07
2019-05-13T18:26:52.075Z,3.53
2019-05-13T18:29:31.595Z,4.07
2019-05-13T18:32:12.143Z,4.20
2019-05-13T18:34:45.759Z,7.07
2019-05-13T18:37:24.155Z,5.63
2019-05-13T18:40:02.328Z,6.17
2019-05-13T18:42:37.558Z,5.23
2019-05-13T18:45:16.781Z,5.17
2019-05-13T18:48:01.694Z,3.20
2019-05-13T18:50:41.907Z,3.87
2019-05-13T18:53:17.959Z,6.37
2019-05-13T18:55:56.169Z,5.27
2019-05-13T18:58:34.152Z,5.47
2019-05-13T19:01:11.245Z,6.87
2019-05-13T19:03:52.609Z,7.27
2019-05-13T19:06:31.624Z,4.90
2019-05-13T19:09:07.322Z,5.60
2019-05-13T19:11:36.775Z,4.73
2019-05-13T19:14:05.430Z,5.00
2019-05-13T19:16:34.112Z,7.37
2019-05-13T19:19:12.199Z,4.60
2019-05-13T19:21:33.324Z,4.63
2019-05-13T19:24:02.175Z,4.23
2019-05-13T19:26:30.927Z,3.63
2019-05-13T19:29:01.971Z,5.67
2019-05-13T19:31:29.824Z,6.17
2019-05-13T19:33:58.506Z,5.43
2019-05-13T19:36:27.080Z,5.57
2019-05-13T19:38:55.752Z,6.60
2019-05-13T19:41:24.312Z,5.07
2019-05-13T19:43:53.143Z,5.83
2019-05-13T19:46:21.819Z,5.00
2019-05-13T19:48:52.190Z,4.97
2019-05-13T19:51:21.601Z,6.87
2019-05-13T19:53:51.730Z,5.70
2019-05-13T19:56:21.433Z,5.07
2019-05-13T19:58:49.959Z,4.83
2019-05-13T20:01:18.670Z,5.53
2019-05-13T20:03:47.363Z,5.03
2019-05-13T20:06:15.926Z,5.77
2019-05-13T20:08:44.314Z,6.53
2019-05-13T20:11:12.991Z,4.17
2019-05-13T20:13:41.983Z,4.77
2019-05-13T20:16:11.725Z,3.73
2019-05-13T20:18:41.476Z,6.07
2019-05-13T20:21:13.303Z,5.77
2019-05-13T20:23:41.431Z,4.33
2019-05-13T20:26:09.909Z,5.07
2019-05-13T20:28:38.419Z,4.30
2019-05-13T20:31:07.174Z,5.97
2019-05-13T20:33:39.616Z,6.53
2019-05-13T20:36:06.209Z,6.90
2019-05-13T20:38:34.869Z,6.60
2019-05-13T20:41:03.549Z,4.87
2019-05-13T20:43:32.950Z,3.53
2019-05-13T20:46:02.224Z,5.83
2019-05-13T20:48:32.028Z,6.90
2019-05-13T20:51:02.529Z,6.53
2019-05-13T20:53:31.718Z,7.13
2019-05-13T20:56:01.690Z,7.20
2019-05-13T20:58:31.885Z,7.57
2019-05-13T21:01:02.371Z,6.67
2019-05-13T21:03:31.719Z,4.83
2019-05-13T21:06:00.248Z,6.03
2019-05-13T21:08:28.930Z,4.93
2019-05-13T21:10:57.638Z,5.97
2019-05-13T21:13:26.305Z,5.33
2019-05-13T21:15:55.903Z,3.10
2019-05-13T21:18:24.741Z,5.00
2019-05-13T21:20:53.370Z,5.17
2019-05-13T21:23:21.888Z,3.97
2019-05-13T21:25:51.105Z,4.47
2019-05-13T21:28:21.852Z,5.40
2019-05-13T21:30:51.413Z,5.93
2019-05-13T21:33:22.189Z,4.80
2019-05-13T21:35:51.227Z,4.80
2019-05-13T21:38:22.215Z,5.77
2019-05-13T21:40:52.168Z,7.93
2019-05-13T21:43:21.636Z,7.67
2019-05-13T21:45:52.109Z,8.37
2019-05-13T21:48:21.740Z,9.73
2019-05-13T21:50:51.609Z,9.97
2019-05-13T21:53:24.153Z,10.43
2019-05-13T21:55:51.989Z,9.00
2019-05-13T21:58:22.242Z,10.27
2019-05-13T22:00:52.121Z,9.37
2019-05-13T22:03:20.911Z,12.50
2019-05-13T22:05:51.523Z,11.13
2019-05-13T22:08:21.624Z,11.43
2019-05-13T22:10:52.373Z,9.70
2019-05-13T22:13:21.107Z,9.97
2019-05-13T22:15:49.534Z,12.60
2019-05-13T22:18:18.670Z,11.67
2019-05-13T22:20:50.523Z,9.83
2019-05-13T22:23:17.447Z,14.73
2019-05-13T22:25:46.047Z,11.90
2019-05-13T22:28:14.976Z,13.03
2019-05-13T22:30:44.608Z,11.77
2019-05-13T22:33:13.335Z,11.57
2019-05-13T22:35:42.008Z,9.90
2019-05-13T22:38:12.247Z,10.47
2019-05-13T22:40:42.101Z,9.97
2019-05-13T22:43:12.150Z,10.17
2019-05-13T22:45:41.877Z,10.83
2019-05-13T22:48:14.620Z,10.50
2019-05-13T22:50:41.894Z,10.60
2019-05-13T22:53:12.036Z,10.40
2019-05-13T22:55:41.770Z,11.63
2019-05-13T22:58:10.606Z,11.30
2019-05-13T23:00:39.293Z,13.77
2019-05-13T23:03:09.845Z,11.33
2019-05-13T23:05:38.502Z,12.17
2019-05-13T23:08:07.194Z,15.60
2019-05-13T23:10:35.893Z,10.03
2019-05-13T23:13:04.659Z,13.97
2019-05-13T23:15:33.259Z,10.77
2019-05-13T23:18:01.942Z,16.27
2019-05-13T23:20:31.806Z,11.73
2019-05-13T23:23:01.278Z,11.70
2019-05-13T23:25:32.042Z,11.60
2019-05-13T23:28:00.471Z,13.13
2019-05-13T23:30:31.075Z,10.40
2019-05-13T23:32:59.181Z,17.60
2019-05-13T23:35:27.841Z,11.50
2019-05-13T23:37:56.529Z,13.60
2019-05-13T23:40:25.235Z,12.47
2019-05-13T23:42:53.606Z,12.27
2019-05-13T23:45:22.166Z,11.47
2019-05-13T23:47:51.082Z,10.73
2019-05-13T23:50:21.525Z,10.13
2019-05-13T23:52:51.183Z,14.27
2019-05-13T23:55:22.472Z,9.73
2019-05-13T23:57:52.494Z,9.93
